Create Custom Reports and Graphics: Custom Report

North/Central Map

Map

15 Minute Data

South County Map

Map

15 Minute Data

Northern Sonoma County Latest

23 Stations

15 Minute Data | America/Los_Angeles
as of 4/15/24 6:15 AM PDT
Station Date Time Temp (°F) RH (%) Dew Pt (°F) Wind Spd (mph) Wind Dir (°) Wind Gust (mph) Latest Rain (In) Daily Rain (In) Daily Min Temp (°F) Daily Max Temp (°F)
Rockpile Lower (Cooley) 4/15/24 0545 42.1   0.0 96   14 41.0   4.0 0.8   4.4 NW | 318 3.2   5.4 0.00 0.00 42.0   2.0 44.8   2.6
Rockpile Upper (Cooley) 4/15/24 0600 39.5   0.6 100   12 39.5   3.7 7.0   0.4 NNW | 334 10.1   1.8 0.00 0.01 39.2   2.4 41.3   2.2
Cloverdale-East (Ranch 83) 4/15/24 0600 44.6   0.8 - - 2.2   0.1 N | 6 4.3   0.1 0.00 0.00 42.1   2.0 45.4   1.6
Cloverdale-SE (Ranch 38) 4/15/24 0600 44.4   0.7 94   8 42.7   2.9 5.3   1.2 N | 2 8.4   1.3 0.00 0.00 44.2   3.1 46.1   1.2
Geyserville-North (Hoffman) 4/15/24 0600 41.1   0.2 96   1 40.1   0.6 0.9   0.6 ENE | 68 2.3   1.0 0.00 0.00 40.4   2.1 45.8   2.9
Geyserville (Ranch 3) 4/15/24 0600 41.7   0.2 98   2 41.3   0.8 0.2   1.8 NE | 40 2.2   0.7 0.00 0.00 41.3   1.6 45.4   1.8
Geyserville-East (Ranch 40) 4/15/24 0600 43.3   1.9 98   7 42.6   3.8 3.7   0.6 S | 171 5.8   2.5 0.00 0.00 42.7   2.4 45.7   2.5
Geyserville-South (Nervo Station) 4/15/24 0600 42.7   1.6 - - 0.0   0.0 N | 0 0.0   0.0 0.00 0.00 42.3   2.3 47.2   3.0
Whitton Ranch (201e) 4/15/24 0600 39.8   1.4 100   4 39.8   0.4 1.3   0.0 W | 268 2.1   0.7 0.00 0.00 39.5   0.3 44.7   1.6
Lytton East (Shop Hill Bottom) 4/15/24 0600 40.2   0.7 98   0 39.6   0.6 1.3   0.1 NNE | 23 2.2   0.9 0.00 0.00 39.4   1.1 45.1   3.4
Lytton East (Hill 5) 4/15/24 0600 41.1   0.8 97   0 40.3   0.8 2.7   1.2 NE | 50 4.0   1.1 0.00 0.00 41.0   2.0 45.8   2.4
Lytton West Lower (Lew 6) 4/15/24 0600 40.0   1.3 100   0 40.0   1.3 0.9   0.5 NE | 34 1.6   1.3 0.00 0.00 39.3   0.8 44.3   2.2
Lytton West Hill (23PS) 4/15/24 0600 42.1   0.5 97   0 41.2   0.4 0.9   1.8 ESE | 105 1.8   2.8 0.00 0.00 41.9   1.9 45.7   1.8
Lytton (River Oaks) 4/15/24 0600 41.4   0.1 97   3 40.6   0.6 0.7   1.0 SW | 231 3.0   0.2 0.00 0.00 40.4   0.1 46.4   1.1
Lytton (River Oaks Remote) 4/15/24 0600 40.4   1.3 98   4 40.0   0.3 - - - - - 40.3   0.2 45.6   1.4
Jimtown-North (Piccolo Ranch 15) 4/15/24 0600 42.2   0.2 90   4 39.5   1.1 0.9   0.5 SW | 217 2.4   1.1 0.00 0.00 41.9   1.1 47.8   2.4
Jimtown-NE (Red Fan) 4/15/24 0600 43.6   2.2 98   2 42.9   2.6 1.0   0.0 SE | 142 1.9   1.3 0.00 0.00 43.3   3.1 46.6   0.8
HWY 128/Chalk Hill Rd (Landslide) 4/15/24 0600 42.0   0.4 98   6 41.5   1.1 0.5   0.9 WSW | 258 1.8   1.1 0.00 0.00 41.6   1.2 47.3   1.5
N Chalk Hill Rd (Ranch 63) 4/15/24 0600 40.4   2.0 99   10 40.1   0.7 0.0   2.4 N | 0 0.0   4.8 0.00 0.00 39.8   0.8 45.6   1.0
Knights Valley (Bavarian Lion) 4/15/24 0600 46.4   3.5 94   8 44.8   5.7 0.8   0.8 SW | 225 2.5   2.0 0.00 0.00 44.9   4.2 49.8   3.5
Bavarian Lion EFW 4/15/24 0600 46.7   4.1 - - - - - 0.00 0.00 46.0   4.4 49.6   2.9
Upper Dry Creek Valley 4/15/24 0600 40.6   0.3 96   1 39.7   0.6 0.4   0.5 E | 80 1.7   0.5 0.00 0.00 39.8   1.1 48.5   5.9
Lower Dry Creek Valley 4/15/24 0600 39.4   1.6 100   0 39.4   1.6 0.6   1.6 S | 170 1.8   1.0 0.00 0.00 39.2   0.2 45.0   1.9
Max     46.7 100 44.8 7.0 - 10.1 0.00 0.01 46.0 49.8
Avg     42.0 97 40.8 1.5 - 3.0 0.00 - - -
Min     39.4 90 39.4 0.0 - 0.0 0.00 0.00 39.2 41.3

Central Sonoma County Latest

32 Stations

15 Minute Data | America/Los_Angeles
as of 4/15/24 6:15 AM PDT
Station Date Time Temp (°F) RH (%) Dew Pt (°F) Wind Spd (mph) Wind Dir (°) Wind Gust (mph) Latest Rain (In) Daily Rain (In) Daily Min Temp (°F) Daily Max Temp (°F)
Healdsburg-South (Sodini) 4/15/24 0600 39.5   3.5 100   9 39.4   0.9 0.0   0.0 SE | 139 1.4   1.4 0.00 0.00 39.2   0.3 43.1   2.5
Windsor-East (Ranch 16) 4/15/24 0600 39.8   1.7 100   6 39.8   0.1 0.9   0.6 SSE | 168 3.7   0.2 0.00 0.00 39.2   0.1 44.2   0.9
Windsor-NW (Ranch 8) 4/15/24 0600 41.3   1.3 89   3 38.4   0.4 2.2   0.3 ESE | 109 4.3   0.8 0.00 0.00 41.2   0.6 46.0   0.2
Mark West-North (Ranch 14) 4/15/24 0600 40.1   2.5 98   7 39.6   0.6 1.1   0.3 ESE | 108 3.3   1.4 0.00 0.00 40.0   0.5 44.1   1.8
Windsor-SE (Silk Rd) 4/15/24 0530 41.4   1.1 100   8 41.4   1.2 0.5   2.8 SSW | 198 1.7   4.3 0.00 0.00 41.3   0.6 43.5   1.7
Fulton-NW (Ranch 5) 4/15/24 0600 39.9   3.6 99   10 39.8   0.8 1.2   1.8 E | 86 2.7   2.3 0.00 0.00 39.4   3.0 43.8   2.1
Windsor-South (Laughlin Rd) 4/15/24 0600 40.0   3.2 - - - - - 0.00 0.00 39.5   1.9 44.9   0.5
Fulton-SE (Barnes Rd) 4/15/24 0600 40.6   2.2 98   8 40.2   0.1 1.2   1.4 N | 3 2.7   2.3 0.00 0.00 40.5   1.5 44.5   2.0
Fulton-SW (Ranch 21) 4/15/24 0600 39.8   3.1 - - 1.3   0.3 E | 96 2.5   0.3 0.00 0.00 39.2   1.7 43.9   1.2
Santa Rosa-NW (Goldfields) 4/15/24 0600 40.9   2.8 100   10 40.9   0.0 1.2   1.1 E | 87 2.9   0.7 0.00 0.00 40.5   1.7 43.8   2.6
Goldfields Remote 4/15/24 0600 40.8   2.7 - - - - - - - 39.7   0.3 41.6   3.0
NW Santa Rosa (Piner Road) 4/15/24 0600 41.4   2.4 99   7 41.2   0.5 0.9   0.1 E | 88 2.4   0.3 0.00 0.00 40.8   1.4 43.9   2.4
River Rd South (Denner Ranch) 4/15/24 0600 40.4   3.0 0   89 -76.3   116.7 1.4   1.5 ENE | 57 2.2   2.8 - - 40.2   2.0 43.8   2.1
West Santa Rosa (LOV Vineyard) 4/15/24 0600 41.4   2.2 99   10 41.1   0.5 0.4   2.9 ENE | 63 2.5   3.5 0.00 0.00 40.9   0.8 43.4   2.5
Guerneville Rd (Prokopakis) 4/15/24 0600 41.4   2.5 100   10 41.4   0.1 - - - 0.00 0.00 41.4   1.4 44.6   1.5
Guerneville Rd West (Balletto) 4/15/24 0600 41.3   3.2 98   11 40.8   0.2 1.8   2.3 E | 82 3.2   3.2 0.00 0.00 41.0   2.1 44.5   2.0
Guerneville Rd East (Rich Ranch) 4/15/24 0600 41.4   2.5 99   12 41.1   0.7 - - - - - 40.8   1.9 44.8   1.4
Sanchietti Ranch 4/15/24 0600 41.0   4.1 100   11 41.0   1.2 1.5   1.8 E | 79 2.9   3.1 0.00 0.00 41.0   2.1 43.9   3.2
Occidental Rd (Sebastopol) 4/15/24 0600 39.5   4.6 100   0 39.5   4.6 1.2   2.2 ENE | 75 2.4   3.9 0.00 0.00 39.2   3.5 43.2   2.1
Lower Westside Rd (Ranch 12) 4/15/24 0600 40.0   1.8 97   2 39.2   1.2 0.3   0.0 W | 260 1.8   0.3 0.00 0.00 39.4   1.1 43.5   0.3
Guerneville (Laughlin Rd) 4/15/24 0600 42.0   1.4 100   3 42.0   2.1 1.9   1.6 NW | 319 3.1   1.4 0.00 0.00 41.8   2.7 44.4   2.0
Korbel (Winery) 4/15/24 0600 42.8   1.0 100   2 42.8   1.6 0.8   0.5 N | 353 2.5   1.1 0.00 0.00 42.8   2.1 45.0   2.3
Forestville (Shone Farms) 4/15/24 0600 41.0   1.5 97   7 40.2   0.4 0.9   3.4 S | 190 2.6   4.6 0.00 0.00 39.7   0.7 44.7   1.7
Forestville-NE (Ranch 30) 4/15/24 0600 41.3   1.1 98   6 40.9   0.5 1.7   0.5 SE | 146 3.3   1.9 0.00 0.00 41.2   1.1 43.9   0.3
Green Valley Vineyard 4/15/24 0600 39.2   5.2 98   14 38.7   1.1 0.7   0.3 WNW | 298 1.8   3.1 0.00 0.00 38.8   3.2 42.9   1.9
Green Valley (Sanchietti) 4/15/24 0600 38.0   3.9 - - - - - - - 37.9   1.1 43.9   1.9
Graton-West (Dutton Ranch) 4/15/24 0600 39.8   2.1 100   0 39.8   2.1 0.4   0.6 SSW | 192 1.5   0.8 0.00 0.00 39.5   0.7 43.2   0.7
Graton-South (Mill Station Rd) 4/15/24 0545 37.6   4.5 100   5 37.6   3.2 0.0   0.5 N | 0 0.0   2.6 0.00 0.00 37.1   1.9 42.2   1.4
Occidental (Horseshoe Bend) 4/15/24 0600 43.2   0.7 97   15 42.4   3.5 - - - 0.00 0.00 42.6   0.5 45.5   1.5
Sexton Valley (Jacqueline's Blk) 4/15/24 0600 37.0   4.5 97   0 36.2   4.6 0.0   1.0 N | 0 0.0   2.2 0.00 0.00 36.7   0.9 41.5   0.6
Sebastopol Hills (Burnside Rd) 4/15/24 0600 44.4   1.2 99   10 44.1   3.9 0.2   2.0 ESE | 120 1.6   4.3 0.00 0.00 42.7   0.7 45.3   1.9
Seaview/Fort Ross (Hirsch) 4/15/24 0600 41.4   1.4 97   7 40.6   3.3 0.0   3.2 N | 0 0.0   5.0 0.00 0.00 40.0   1.7 42.2   1.8
Max     44.4 100 44.1 2.2 - 4.3 0.00 0.00 42.8 46.0
Avg     40.6 95 36.2 0.9 - 2.3 0.00 - - -
Min     37.0 0 -76.3 0.0 - 0.0 0.00 0.00 36.7 41.5

Southern Sonoma County Latest

18 Stations

15 Minute Data | America/Los_Angeles
as of 4/15/24 6:15 AM PDT
Station Date Time Temp (°F) RH (%) Dew Pt (°F) Wind Spd (mph) Wind Dir (°) Wind Gust (mph) Latest Rain (In) Daily Rain (In) Daily Min Temp (°F) Daily Max Temp (°F)
Upper Rincon Valley 4/15/24 0600 42.5   0.4 95   13 41.3   3.5 2.1   0.7 NE | 46 5.8   4.6 0.00 0.00 42.1   0.8 46.6   3.7
Lower Bennett Valley 4/15/24 0600 39.5   5.5 100   18 39.5   0.3 0.3   2.3 ESE | 117 1.4   6.1 0.00 0.00 38.2   2.7 45.1   0.4
Kenwood (Wildwood) 4/15/24 0600 40.5   5.0 100   18 40.4   0.3 1.4   1.9 ENE | 72 2.8   4.2 0.00 0.00 39.6   2.7 43.4   2.4
Sonoma Valley (Bedrock) 4/15/24 0600 38.7   6.4 - 38.0   0.9 0.0   4.0 N | 0 0.0   9.8 0.00 0.00 37.4   4.0 44.7   1.3
Sonoma-West (Arnold) 4/15/24 0600 39.6   6.9 100   20 39.6   1.2 0.8   4.0 WNW | 299 2.0   7.2 0.00 0.00 37.8   5.2 43.3   3.3
Sonoma Valley HS 4/15/24 0600 40.2   6.5 100   17 40.1   1.5 0.6   4.0 WNW | 284 1.5   8.8 0.00 0.00 39.8   6.0 44.4   2.5
Sonoma East (Bundschu01) 4/15/24 0600 38.1   8.0 98   16 37.6   3.3 1.5   7.7 NNE | 32 3.9   13.8 0.00 0.00 37.8   8.0 42.8   3.8
Schellville (Sasaki) 4/15/24 0600 39.6   7.3 96   14 38.5   3.0 0.0   3.6 N | 0 0.0   11.1 0.00 0.00 39.5   6.0 47.1   0.0
Sonoma-SE (Napoli) 4/15/24 0600 40.8   5.7 95   15 39.5   1.3 0.0   6.6 N | 0 0.0   15.5 0.00 0.00 40.4   5.5 44.0   3.1
Ricci Vineyards (Carneros) 4/15/24 0600 43.0   3.6 98   15 42.4   0.8 2.1   2.8 E | 80 3.8   5.0 0.00 0.00 42.0   3.4 46.6   0.3
Carneros (Ranch 71) 4/15/24 0600 43.6   1.9 98   13 42.9   1.7 1.3   5.5 NNW | 340 4.9   8.3 0.00 0.00 43.0   1.5 46.0   0.1
Carneros Upper (Ranch 81) 4/15/24 0600 43.3   2.0 100   16 43.3   2.7 4.4   2.2 NNE | 15 6.6   5.2 - - 42.6   1.9 46.2   0.0
Carneros Lower (Ranch 81) 4/15/24 0600 44.2   1.7 100   16 44.2   2.8 2.6   1.8 NNE | 13 4.6   0.2 0.00 0.00 41.1   3.9 46.3   0.1
Rohnert Park-West (Stony Point) 4/15/24 0600 40.3   1.1 99   4 40.1   0.0 1.1   1.1 ESE | 102 2.8   1.6 0.00 0.00 39.3   0.5 44.0   2.1
Rice-Spivak Vineyard 4/15/24 0600 35.5   3.0 - - - - - - - 35.4   2.5 40.0   0.2
Penngrove (Asellus) 4/15/24 0600 43.1   2.4 98   18 42.7   2.7 2.4   1.5 N | 355 3.8   2.1 0.00 0.00 40.0   3.3 44.3   3.2
Roger's Creek (Ranch 50) 4/15/24 0600 42.9   0.6 100   13 42.9   3.0 0.2   3.4 NW | 312 1.5   8.1 0.00 0.00 42.5   0.4 45.4   1.7
Petaluma (Ranch 10) 4/15/24 0600 44.3   0.5 97   10 43.5   2.3 1.1   0.9 NW | 313 2.6   2.5 0.00 0.00 43.8   0.5 47.4   1.6
Max     44.3 100 44.2 4.4 - 6.6 0.00 0.00 43.8 47.4
Avg     41.1 98 41.0 1.3 - 2.8 0.00 - - -
Min     35.5 95 37.6 0.0 - 0.0 0.00 0.00 35.4 40.0

Latest Observations

Map

Hourly Data